createdAt,value
2023-05-19T00:00:33.082Z,4.03
2023-05-19T00:03:23.860Z,3.67
2023-05-19T00:06:12.466Z,3.60
2023-05-19T00:09:02.797Z,4.05
2023-05-19T00:11:51.621Z,4.07
2023-05-19T00:14:40.207Z,4.43
2023-05-19T00:17:28.540Z,4.13
2023-05-19T00:20:18.115Z,4.00
2023-05-19T00:23:06.194Z,4.00
2023-05-19T00:25:54.267Z,4.18
2023-05-19T00:28:42.340Z,4.10
2023-05-19T00:31:31.669Z,3.75
2023-05-19T00:34:19.813Z,4.10
2023-05-19T00:37:09.312Z,4.00
2023-05-19T00:39:58.100Z,4.07
2023-05-19T00:42:46.126Z,3.78
2023-05-19T00:45:34.257Z,3.78
2023-05-19T00:48:22.753Z,4.17
2023-05-19T00:51:14.508Z,3.75
2023-05-19T00:54:04.042Z,4.30
2023-05-19T00:56:52.200Z,4.18
2023-05-19T00:59:40.358Z,4.35
2023-05-19T01:02:29.761Z,3.93
2023-05-19T01:05:18.141Z,4.22
2023-05-19T01:08:06.915Z,4.05
2023-05-19T01:10:56.508Z,4.25
2023-05-19T01:13:45.293Z,4.20
2023-05-19T01:16:40.032Z,4.20
2023-05-19T01:19:46.720Z,4.13
2023-05-19T01:23:11.058Z,4.40
2023-05-19T01:26:26.021Z,4.15
2023-05-19T01:29:29.355Z,4.60
2023-05-19T01:32:22.139Z,4.67
2023-05-19T01:35:13.693Z,4.47
2023-05-19T01:38:02.709Z,4.53
2023-05-19T01:40:53.209Z,4.60
2023-05-19T01:43:41.752Z,3.90
2023-05-19T01:46:30.311Z,3.93
2023-05-19T01:49:20.096Z,3.88
2023-05-19T01:52:08.388Z,4.22
2023-05-19T01:54:56.441Z,3.95
2023-05-19T01:57:52.589Z,4.28
2023-05-19T02:00:52.476Z,4.10
2023-05-19T02:03:59.876Z,4.18
2023-05-19T02:06:56.392Z,4.82
2023-05-19T02:09:54.003Z,4.50
2023-05-19T02:12:42.658Z,4.65
2023-05-19T02:15:36.170Z,4.37
2023-05-19T02:18:25.187Z,4.80
2023-05-19T02:21:13.558Z,4.28
2023-05-19T02:24:02.965Z,4.10
2023-05-19T02:26:51.913Z,4.80
2023-05-19T02:29:40.115Z,4.93
2023-05-19T02:32:28.234Z,5.22
2023-05-19T02:35:16.702Z,5.13
2023-05-19T02:38:04.748Z,5.05
2023-05-19T02:40:54.221Z,4.78
2023-05-19T02:43:42.300Z,4.40
2023-05-19T02:46:30.455Z,4.68
2023-05-19T02:49:18.770Z,4.82
2023-05-19T02:52:07.501Z,4.53
2023-05-19T02:54:55.508Z,4.70
2023-05-19T02:57:44.995Z,4.47
2023-05-19T03:00:33.325Z,4.32
2023-05-19T03:03:21.612Z,4.80
2023-05-19T03:06:09.727Z,5.10
2023-05-19T03:08:57.703Z,4.20
2023-05-19T03:11:45.740Z,4.50
2023-05-19T03:14:37.678Z,4.40
2023-05-19T03:17:25.948Z,4.60
2023-05-19T03:20:15.798Z,4.43
2023-05-19T03:23:03.742Z,4.47
2023-05-19T03:25:54.033Z,4.93
2023-05-19T03:28:42.058Z,4.60
2023-05-19T03:31:31.613Z,5.38
2023-05-19T03:34:19.620Z,4.70
2023-05-19T03:37:07.901Z,4.72
2023-05-19T03:39:56.032Z,4.97
2023-05-19T03:42:44.072Z,4.75
2023-05-19T03:45:32.098Z,4.78
2023-05-19T03:48:21.521Z,5.00
2023-05-19T03:51:09.519Z,4.75
2023-05-19T03:53:57.488Z,5.33
2023-05-19T03:56:46.020Z,5.22
2023-05-19T03:59:35.304Z,5.00
2023-05-19T04:02:23.664Z,5.13
2023-05-19T04:05:13.059Z,5.05
2023-05-19T04:08:01.175Z,5.60
2023-05-19T04:10:49.180Z,5.07
2023-05-19T04:13:37.204Z,4.97
2023-05-19T04:16:25.467Z,4.72
2023-05-19T04:19:13.928Z,5.32
2023-05-19T04:22:03.349Z,5.20
2023-05-19T04:24:53.005Z,5.20
2023-05-19T04:27:41.104Z,5.47
2023-05-19T04:30:29.271Z,5.53
2023-05-19T04:33:17.874Z,5.60
2023-05-19T04:36:08.597Z,5.80
2023-05-19T04:39:02.444Z,5.85
2023-05-19T04:41:50.459Z,5.15
2023-05-19T04:44:40.204Z,5.18
2023-05-19T04:47:30.134Z,5.03
2023-05-19T04:50:18.238Z,5.90
2023-05-19T04:53:07.021Z,5.07
2023-05-19T04:55:56.701Z,5.57
2023-05-19T04:58:45.035Z,5.28
2023-05-19T05:01:33.882Z,5.78
2023-05-19T05:04:22.082Z,5.30
2023-05-19T05:07:10.041Z,5.68
2023-05-19T05:09:58.173Z,5.60
2023-05-19T05:12:48.215Z,5.43
2023-05-19T05:15:36.718Z,5.25
2023-05-19T05:18:25.441Z,5.23
2023-05-19T05:21:14.108Z,5.22
2023-05-19T05:24:02.676Z,5.32
2023-05-19T05:26:51.244Z,5.70
2023-05-19T05:29:40.553Z,5.45
2023-05-19T05:32:28.730Z,5.70
2023-05-19T05:35:16.906Z,5.38
2023-05-19T05:38:05.363Z,5.53
2023-05-19T05:40:53.911Z,4.85
2023-05-19T05:43:41.902Z,5.30
2023-05-19T05:46:33.645Z,5.30
2023-05-19T05:49:22.380Z,5.03
2023-05-19T05:52:13.161Z,5.38
2023-05-19T05:55:01.735Z,5.50
2023-05-19T05:57:50.483Z,5.10
2023-05-19T06:00:38.612Z,4.83
2023-05-19T06:03:27.993Z,5.78
2023-05-19T06:06:16.234Z,5.38
2023-05-19T06:09:04.416Z,5.20
2023-05-19T06:11:52.461Z,5.35
2023-05-19T06:14:40.659Z,5.07
2023-05-19T06:17:28.710Z,5.00
2023-05-19T06:20:20.025Z,4.80
2023-05-19T06:23:08.037Z,5.45
2023-05-19T06:25:56.617Z,5.50
2023-05-19T06:28:44.712Z,5.77
2023-05-19T06:31:33.655Z,5.35
2023-05-19T06:34:21.858Z,5.45
2023-05-19T06:37:11.841Z,4.72
2023-05-19T06:39:59.933Z,4.88
2023-05-19T06:42:48.033Z,5.13
2023-05-19T06:45:36.143Z,5.63
2023-05-19T06:48:24.132Z,4.78
2023-05-19T06:51:12.333Z,5.13
2023-05-19T06:54:01.709Z,4.93
2023-05-19T06:56:50.110Z,5.50
2023-05-19T06:59:40.799Z,5.78
2023-05-19T07:02:28.959Z,5.28
2023-05-19T07:05:17.020Z,5.22
2023-05-19T07:08:06.861Z,4.80
2023-05-19T07:10:56.337Z,4.37
2023-05-19T07:13:44.305Z,4.97
2023-05-19T07:16:32.381Z,5.55
2023-05-19T07:19:20.691Z,5.07
2023-05-19T07:22:08.813Z,5.07
2023-05-19T07:24:57.083Z,4.93
2023-05-19T07:27:46.714Z,5.20
2023-05-19T07:30:35.073Z,4.45
2023-05-19T07:33:23.602Z,4.85
2023-05-19T07:36:11.875Z,5.05
2023-05-19T07:38:59.894Z,4.53
2023-05-19T07:41:55.607Z,4.65
2023-05-19T07:44:45.098Z,4.18
2023-05-19T07:47:33.142Z,4.97
2023-05-19T07:50:21.509Z,4.78
2023-05-19T07:53:09.469Z,4.50
2023-05-19T07:55:58.616Z,4.82
2023-05-19T07:58:46.814Z,4.70
2023-05-19T08:01:36.397Z,4.43
2023-05-19T08:04:24.416Z,4.38
2023-05-19T08:07:12.484Z,4.10
2023-05-19T08:10:00.595Z,4.38
2023-05-19T08:12:48.674Z,4.57
2023-05-19T08:15:36.749Z,4.70
2023-05-19T08:18:26.365Z,4.32
2023-05-19T08:21:14.380Z,4.70
2023-05-19T08:24:02.580Z,4.30
2023-05-19T08:26:51.721Z,4.70
2023-05-19T08:29:40.164Z,4.47
2023-05-19T08:32:28.247Z,4.45
2023-05-19T08:35:17.615Z,4.43
2023-05-19T08:38:05.612Z,4.07
2023-05-19T08:40:56.347Z,4.10
2023-05-19T08:43:45.151Z,4.22
2023-05-19T08:46:33.323Z,4.15
2023-05-19T08:49:27.682Z,3.90
2023-05-19T08:52:29.337Z,3.80
2023-05-19T08:55:27.619Z,4.05
2023-05-19T08:58:20.549Z,4.22
2023-05-19T09:01:08.863Z,3.70
2023-05-19T09:03:57.438Z,3.80
2023-05-19T09:06:45.642Z,3.70
2023-05-19T09:09:38.075Z,4.15
2023-05-19T09:12:27.332Z,3.90
2023-05-19T09:15:18.621Z,3.33
2023-05-19T09:18:11.145Z,3.63
2023-05-19T09:21:00.620Z,3.42
2023-05-19T09:23:49.652Z,3.95
2023-05-19T09:26:40.579Z,3.80
2023-05-19T09:29:28.570Z,4.07
2023-05-19T09:32:26.134Z,4.10
2023-05-19T09:35:17.090Z,3.67
2023-05-19T09:38:05.311Z,3.65
2023-05-19T09:40:53.600Z,3.10
2023-05-19T09:43:43.186Z,3.33
2023-05-19T09:46:31.253Z,3.00
2023-05-19T09:49:22.806Z,3.00
2023-05-19T09:52:12.184Z,3.20
2023-05-19T09:55:02.675Z,3.28
2023-05-19T09:57:51.707Z,3.30
2023-05-19T10:00:41.917Z,2.57
2023-05-19T10:03:30.862Z,2.90
2023-05-19T10:06:19.206Z,2.75
2023-05-19T10:09:07.693Z,2.78
2023-05-19T10:11:57.036Z,2.72
2023-05-19T10:14:45.164Z,2.60
2023-05-19T10:17:36.763Z,3.03
2023-05-19T10:20:24.826Z,2.40
2023-05-19T10:23:12.911Z,2.53
2023-05-19T10:26:04.095Z,2.20
2023-05-19T10:28:52.482Z,2.50
2023-05-19T10:31:41.861Z,2.30
2023-05-19T10:34:57.114Z,2.28
2023-05-19T10:37:51.506Z,2.30
2023-05-19T10:40:44.932Z,2.10
2023-05-19T10:43:45.020Z,2.33
2023-05-19T10:46:33.197Z,2.42
2023-05-19T10:49:22.702Z,2.50
2023-05-19T10:52:26.613Z,2.40
2023-05-19T10:55:17.578Z,2.60
2023-05-19T10:58:05.729Z,2.60
2023-05-19T11:01:01.524Z,2.88
2023-05-19T11:03:52.288Z,3.00
2023-05-19T11:06:41.752Z,2.85
2023-05-19T11:09:39.969Z,2.97
2023-05-19T11:12:28.663Z,2.67
2023-05-19T11:15:17.294Z,2.97
2023-05-19T11:18:05.878Z,3.08
2023-05-19T11:20:59.005Z,2.80
2023-05-19T11:23:47.202Z,2.60
2023-05-19T11:27:10.548Z,3.00
2023-05-19T11:30:21.144Z,3.17
2023-05-19T11:33:09.949Z,3.10
2023-05-19T11:35:59.072Z,3.20
2023-05-19T11:38:48.340Z,3.70
2023-05-19T11:41:40.900Z,3.53
2023-05-19T11:44:30.466Z,3.67
2023-05-19T11:47:18.575Z,3.53
2023-05-19T11:50:12.728Z,3.50
2023-05-19T11:53:02.567Z,3.90
2023-05-19T11:55:51.739Z,3.57
2023-05-19T11:58:40.805Z,3.70
2023-05-19T12:01:31.897Z,3.88
2023-05-19T12:04:20.610Z,3.75
2023-05-19T12:07:08.762Z,3.78
2023-05-19T12:09:58.209Z,3.50
2023-05-19T12:12:46.846Z,3.50
2023-05-19T12:15:35.234Z,3.40
2023-05-19T12:18:28.835Z,3.80
2023-05-19T12:21:18.647Z,3.70
2023-05-19T12:24:07.978Z,3.47
2023-05-19T12:27:07.445Z,3.30
2023-05-19T12:29:57.350Z,3.50
2023-05-19T12:32:46.847Z,3.78
2023-05-19T12:35:38.953Z,4.00
2023-05-19T12:38:27.071Z,3.40
2023-05-19T12:41:15.600Z,3.50
2023-05-19T12:44:18.296Z,3.50
2023-05-19T12:47:07.790Z,3.58
2023-05-19T12:49:56.843Z,3.85
2023-05-19T12:52:48.319Z,3.67
2023-05-19T12:55:40.861Z,3.60
2023-05-19T12:58:29.188Z,3.80
2023-05-19T13:01:18.480Z,4.00
2023-05-19T13:04:07.424Z,3.75
2023-05-19T13:06:55.955Z,3.53
2023-05-19T13:09:45.589Z,3.63
2023-05-19T13:12:33.841Z,3.92
2023-05-19T13:15:24.235Z,3.60
2023-05-19T13:18:13.892Z,3.08
2023-05-19T13:21:02.524Z,3.03
2023-05-19T13:23:51.292Z,3.50
2023-05-19T13:26:41.805Z,3.60
2023-05-19T13:29:29.935Z,3.20
2023-05-19T13:32:18.347Z,3.88
2023-05-19T13:35:23.221Z,3.13
2023-05-19T13:38:11.751Z,3.22
2023-05-19T13:41:02.537Z,4.32
2023-05-19T13:43:51.891Z,3.70
2023-05-19T13:46:45.535Z,3.25
2023-05-19T13:49:34.114Z,3.17
2023-05-19T13:52:22.762Z,3.40
2023-05-19T13:55:10.961Z,3.00
2023-05-19T13:57:59.142Z,3.10
2023-05-19T14:00:49.626Z,3.05
2023-05-19T14:03:37.820Z,3.40
2023-05-19T14:06:25.848Z,3.35
2023-05-19T14:09:14.340Z,3.10
2023-05-19T14:12:02.379Z,3.40
2023-05-19T14:14:50.728Z,3.13
2023-05-19T14:17:40.404Z,3.53
2023-05-19T14:20:29.455Z,3.20
2023-05-19T14:23:20.178Z,2.97
2023-05-19T14:26:08.234Z,3.10
2023-05-19T14:28:59.520Z,3.35
2023-05-19T14:31:47.690Z,3.17
2023-05-19T14:34:37.224Z,3.17
2023-05-19T14:37:26.546Z,3.10
2023-05-19T14:40:17.605Z,3.28
2023-05-19T14:43:05.615Z,3.20
2023-05-19T14:45:53.763Z,3.17
2023-05-19T14:48:41.796Z,3.17
2023-05-19T14:51:31.669Z,2.90
2023-05-19T14:54:19.833Z,3.38
2023-05-19T14:57:08.308Z,3.30
2023-05-19T14:59:56.463Z,3.60
2023-05-19T15:02:45.233Z,3.10
2023-05-19T15:05:33.270Z,3.45
2023-05-19T15:08:23.404Z,3.58
2023-05-19T15:11:11.609Z,3.10
2023-05-19T15:13:59.665Z,3.20
2023-05-19T15:16:47.874Z,2.92
2023-05-19T15:19:36.059Z,2.65
2023-05-19T15:22:24.208Z,3.00
2023-05-19T15:25:13.665Z,3.10
2023-05-19T15:28:01.669Z,3.30
2023-05-19T15:30:49.711Z,3.00
2023-05-19T15:33:37.737Z,3.20
2023-05-19T15:36:25.720Z,3.15
2023-05-19T15:39:14.286Z,3.10
2023-05-19T15:42:03.710Z,3.03
2023-05-19T15:44:51.724Z,2.97
2023-05-19T15:47:39.735Z,2.90
2023-05-19T15:50:28.235Z,3.00
2023-05-19T15:53:16.350Z,2.60
2023-05-19T15:56:04.998Z,2.83
2023-05-19T15:58:54.415Z,2.85
2023-05-19T16:01:42.507Z,2.80
2023-05-19T16:04:30.686Z,2.95
2023-05-19T16:07:18.779Z,2.88
2023-05-19T16:10:07.647Z,3.00
2023-05-19T16:12:55.738Z,3.40
2023-05-19T16:15:45.148Z,3.20
2023-05-19T16:18:33.450Z,2.90
2023-05-19T16:21:21.880Z,3.10
2023-05-19T16:24:12.534Z,3.60
2023-05-19T16:27:00.856Z,3.25
2023-05-19T16:29:48.853Z,2.92
2023-05-19T16:32:38.211Z,3.30
2023-05-19T16:35:27.748Z,2.80
2023-05-19T16:38:15.921Z,2.80
2023-05-19T16:41:05.221Z,2.90
2023-05-19T16:43:53.323Z,3.00
2023-05-19T16:46:41.511Z,3.28
2023-05-19T16:49:30.868Z,3.22
2023-05-19T16:52:19.111Z,3.30
2023-05-19T16:55:07.822Z,2.88
2023-05-19T16:57:55.870Z,3.47
2023-05-19T17:00:44.086Z,2.70
2023-05-19T17:03:32.757Z,2.67
2023-05-19T17:06:22.312Z,2.63
2023-05-19T17:09:10.484Z,3.17
2023-05-19T17:11:58.567Z,3.05
2023-05-19T17:14:46.660Z,3.65
2023-05-19T17:17:34.735Z,2.80
2023-05-19T17:20:22.823Z,2.67
2023-05-19T17:23:12.158Z,2.63
2023-05-19T17:26:00.163Z,2.85
2023-05-19T17:28:48.269Z,2.90
2023-05-19T17:31:39.324Z,2.90
2023-05-19T17:34:28.074Z,2.75
2023-05-19T17:37:17.584Z,3.00
2023-05-19T17:40:08.539Z,2.85
2023-05-19T17:42:56.566Z,2.60
2023-05-19T17:45:44.582Z,2.75
2023-05-19T17:48:32.888Z,3.20
2023-05-19T17:51:21.549Z,3.13
2023-05-19T17:54:10.120Z,3.00
2023-05-19T17:57:03.272Z,3.30
2023-05-19T17:59:52.068Z,3.20
2023-05-19T18:02:41.082Z,3.03
2023-05-19T18:05:29.482Z,2.63
2023-05-19T18:08:18.451Z,3.15
2023-05-19T18:11:06.998Z,2.60
2023-05-19T18:13:56.438Z,2.63
2023-05-19T18:16:44.574Z,2.50
2023-05-19T18:19:33.102Z,2.43
2023-05-19T18:22:21.255Z,2.60
2023-05-19T18:25:10.479Z,2.58
2023-05-19T18:27:58.500Z,2.85
2023-05-19T18:30:47.977Z,2.50
2023-05-19T18:33:36.055Z,2.30
2023-05-19T18:36:24.351Z,2.50
2023-05-19T18:39:12.587Z,2.60
2023-05-19T18:42:01.618Z,2.80
2023-05-19T18:44:50.753Z,2.75
2023-05-19T18:47:40.348Z,3.20
2023-05-19T18:50:28.605Z,2.85
2023-05-19T18:53:16.677Z,3.17
2023-05-19T18:56:04.943Z,3.30
2023-05-19T18:58:53.209Z,3.17
2023-05-19T19:01:41.430Z,3.13
2023-05-19T19:04:30.884Z,3.13
2023-05-19T19:07:18.899Z,3.20
2023-05-19T19:10:08.010Z,3.50
2023-05-19T19:12:57.771Z,3.50
2023-05-19T19:15:46.049Z,3.50
2023-05-19T19:18:34.560Z,3.88
2023-05-19T19:21:24.147Z,3.70
2023-05-19T19:24:13.600Z,3.65
2023-05-19T19:27:01.692Z,3.80
2023-05-19T19:29:49.676Z,4.00
2023-05-19T19:32:37.838Z,3.65
2023-05-19T19:35:26.433Z,3.75
2023-05-19T19:38:15.909Z,3.78
2023-05-19T19:41:03.922Z,4.25
2023-05-19T19:43:53.013Z,4.43
2023-05-19T19:46:41.270Z,4.53
2023-05-19T19:49:29.453Z,4.55
2023-05-19T19:52:18.198Z,4.13
2023-05-19T19:55:08.857Z,4.38
2023-05-19T19:57:56.961Z,4.60
2023-05-19T20:00:45.012Z,4.60
2023-05-19T20:03:33.622Z,5.03
2023-05-19T20:06:22.475Z,4.82
2023-05-19T20:09:10.661Z,4.88
2023-05-19T20:12:00.012Z,4.73
2023-05-19T20:14:48.467Z,4.65
2023-05-19T20:17:36.551Z,4.53
2023-05-19T20:20:24.561Z,4.97
2023-05-19T20:23:13.383Z,4.80
2023-05-19T20:26:12.094Z,4.57
2023-05-19T20:29:02.334Z,5.00
2023-05-19T20:31:50.610Z,5.00
2023-05-19T20:34:38.833Z,5.13
2023-05-19T20:37:26.860Z,5.15
2023-05-19T20:40:14.970Z,4.73
2023-05-19T20:43:03.043Z,4.65
2023-05-19T20:45:52.586Z,4.88
2023-05-19T20:48:40.672Z,4.60
2023-05-19T20:51:31.083Z,4.30
2023-05-19T20:54:20.199Z,4.90
2023-05-19T20:57:09.390Z,4.53
2023-05-19T20:59:57.452Z,5.40
2023-05-19T21:02:46.968Z,4.57
2023-05-19T21:05:35.595Z,5.45
2023-05-19T21:08:23.876Z,4.80
2023-05-19T21:11:11.898Z,5.00
2023-05-19T21:14:03.879Z,5.10
2023-05-19T21:16:53.849Z,5.20
2023-05-19T21:19:43.279Z,5.10
2023-05-19T21:22:31.331Z,4.70
2023-05-19T21:25:19.561Z,5.47
2023-05-19T21:28:07.581Z,4.47
2023-05-19T21:30:55.690Z,5.18
2023-05-19T21:33:44.088Z,4.55
2023-05-19T21:36:33.471Z,4.67
2023-05-19T21:39:21.551Z,5.00
2023-05-19T21:42:09.571Z,4.95
2023-05-19T21:44:57.864Z,5.13
2023-05-19T21:47:45.881Z,4.95
2023-05-19T21:50:37.381Z,4.80
2023-05-19T21:53:26.823Z,4.57
2023-05-19T21:57:00.234Z,4.93
2023-05-19T21:59:48.456Z,5.05
2023-05-19T22:02:36.574Z,5.13
2023-05-19T22:05:24.663Z,5.20
2023-05-19T22:08:12.698Z,5.32
2023-05-19T22:11:02.269Z,5.07
2023-05-19T22:13:50.287Z,4.90
2023-05-19T22:16:38.516Z,4.88
2023-05-19T22:19:26.845Z,4.63
2023-05-19T22:22:15.143Z,4.65
2023-05-19T22:25:03.536Z,4.78
2023-05-19T22:27:52.938Z,4.70
2023-05-19T22:30:42.221Z,4.45
2023-05-19T22:33:30.510Z,4.60
2023-05-19T22:36:18.831Z,4.78
2023-05-19T22:39:06.954Z,4.88
2023-05-19T22:41:54.976Z,4.70
2023-05-19T22:44:45.875Z,4.75
2023-05-19T22:47:34.116Z,4.57
2023-05-19T22:50:22.312Z,4.90
2023-05-19T22:53:10.495Z,4.80
2023-05-19T22:55:58.498Z,4.88
2023-05-19T22:58:46.537Z,5.20
2023-05-19T23:01:35.979Z,5.47
2023-05-19T23:04:25.390Z,4.80
2023-05-19T23:07:13.462Z,4.60
2023-05-19T23:10:01.638Z,4.40
2023-05-19T23:12:50.073Z,4.50
2023-05-19T23:15:38.063Z,4.70
2023-05-19T23:18:27.482Z,4.55
2023-05-19T23:21:15.553Z,4.72
2023-05-19T23:24:03.726Z,4.72
2023-05-19T23:26:52.072Z,4.78
2023-05-19T23:29:40.083Z,4.87
2023-05-19T23:32:28.208Z,5.07
2023-05-19T23:35:18.540Z,5.03
2023-05-19T23:38:06.714Z,4.50
2023-05-19T23:40:54.895Z,4.80
2023-05-19T23:43:42.968Z,4.80
2023-05-19T23:46:31.608Z,4.35
2023-05-19T23:49:19.811Z,4.82
2023-05-19T23:52:09.306Z,4.45
2023-05-19T23:54:57.278Z,5.15
2023-05-19T23:57:45.277Z,4.77
